createdAt,value
2023-11-21T00:01:41.828Z,99441.81
2023-11-21T00:04:09.896Z,99447.28
2023-11-21T00:06:37.948Z,99442.44
2023-11-21T00:09:06.265Z,99440.59
2023-11-21T00:11:34.142Z,99444.19
2023-11-21T00:14:01.858Z,99441.56
2023-11-21T00:16:29.329Z,99436.34
2023-11-21T00:18:57.528Z,99437.13
2023-11-21T00:21:25.130Z,99435.72
2023-11-21T00:23:52.681Z,99447.53
2023-11-21T00:26:20.523Z,99446.59
2023-11-21T00:28:49.162Z,99457.53
2023-11-21T00:31:16.845Z,99463.84
2023-11-21T00:33:45.119Z,99463.28
2023-11-21T00:36:14.106Z,99463.44
2023-11-21T00:38:41.690Z,99466.75
2023-11-21T00:41:09.391Z,99468.28
2023-11-21T00:43:37.117Z,99464.97
2023-11-21T00:46:10.714Z,99471.12
2023-11-21T00:48:38.899Z,99481.72
2023-11-21T00:51:07.450Z,99484.28
2023-11-21T00:53:35.354Z,99479.53
2023-11-21T00:56:03.765Z,99477.09
2023-11-21T00:58:31.525Z,99471.53
2023-11-21T01:00:59.268Z,99472.16
2023-11-21T01:03:27.460Z,99463.97
2023-11-21T01:05:55.439Z,99469.34
2023-11-21T01:08:24.408Z,99467.91
2023-11-21T01:10:52.488Z,99463.97
2023-11-21T01:13:20.035Z,99467.81
2023-11-21T01:15:47.640Z,99456.31
2023-11-21T01:18:15.495Z,99441.19
2023-11-21T01:20:42.976Z,99441.28
2023-11-21T01:23:10.668Z,99448.81
2023-11-21T01:25:38.607Z,99449.16
2023-11-21T01:28:06.283Z,99455.06
2023-11-21T01:30:34.177Z,99450.44
2023-11-21T01:33:02.146Z,99442.97
2023-11-21T01:35:31.639Z,99449.38
2023-11-21T01:37:59.846Z,99452.25
2023-11-21T01:40:27.849Z,99448.81
2023-11-21T01:42:55.529Z,99438.75
2023-11-21T01:45:23.558Z,99449.81
2023-11-21T01:47:52.053Z,99438.16
2023-11-21T01:50:20.364Z,99434.53
2023-11-21T01:52:48.782Z,99433.22
2023-11-21T01:55:27.485Z,99434.47
2023-11-21T01:57:58.211Z,99433.75
2023-11-21T02:00:29.603Z,99430.37
2023-11-21T02:02:58.408Z,99426.66
2023-11-21T02:05:27.154Z,99415.13
2023-11-21T02:07:54.986Z,99412.09
2023-11-21T02:10:24.716Z,99413.09
2023-11-21T02:12:53.431Z,99404.97
2023-11-21T02:15:22.245Z,99406.63
2023-11-21T02:17:55.371Z,99411.88
2023-11-21T02:20:26.186Z,99412.19
2023-11-21T02:23:01.711Z,99412.31
2023-11-21T02:25:35.365Z,99398.81
2023-11-21T02:28:04.458Z,99396.28
2023-11-21T02:30:35.792Z,99390.31
2023-11-21T02:33:03.905Z,99394.50
2023-11-21T02:35:33.248Z,99387.47
2023-11-21T02:38:01.176Z,99383.56
2023-11-21T02:40:28.910Z,99394.56
2023-11-21T02:43:00.433Z,99379.38
2023-11-21T02:45:28.397Z,99387.25
2023-11-21T02:47:58.494Z,99382.59
2023-11-21T02:50:28.120Z,99377.06
2023-11-21T02:52:55.876Z,99385.44
2023-11-21T02:55:26.193Z,99388.38
2023-11-21T02:57:57.663Z,99389.44
2023-11-21T03:00:28.057Z,99378.59
2023-11-21T03:02:57.351Z,99374.66
2023-11-21T03:05:24.994Z,99368.56
2023-11-21T03:07:52.561Z,99374.41
2023-11-21T03:10:22.620Z,99374.94
2023-11-21T03:12:50.682Z,99365.47
2023-11-21T03:15:18.498Z,99360.22
2023-11-21T03:17:46.440Z,99361.94
2023-11-21T03:20:15.096Z,99360.63
2023-11-21T03:22:42.768Z,99356.88
2023-11-21T03:25:13.465Z,99357.62
2023-11-21T03:27:41.011Z,99347.31
2023-11-21T03:30:10.012Z,99341.97
2023-11-21T03:32:37.932Z,99330.56
2023-11-21T03:35:07.307Z,99322.75
2023-11-21T03:37:35.320Z,99326.38
2023-11-21T03:40:05.504Z,99326.28
2023-11-21T03:42:33.139Z,99316.06
2023-11-21T03:45:00.590Z,99327.00
2023-11-21T03:47:29.457Z,99328.41
2023-11-21T03:49:57.495Z,99337.13
2023-11-21T03:52:25.839Z,99340.09
2023-11-21T03:54:53.857Z,99346.88
2023-11-21T03:57:22.148Z,99343.69
2023-11-21T03:59:49.691Z,99347.31
2023-11-21T04:02:18.598Z,99344.84
2023-11-21T04:04:46.860Z,99347.00
2023-11-21T04:07:14.938Z,99352.38
2023-11-21T04:09:42.588Z,99350.63
2023-11-21T04:12:10.846Z,99352.38
2023-11-21T04:14:38.442Z,99363.91
2023-11-21T04:17:06.312Z,99364.91
2023-11-21T04:19:34.177Z,99369.88
2023-11-21T04:22:01.729Z,99370.50
2023-11-21T04:24:29.452Z,99363.31
2023-11-21T04:26:57.408Z,99368.22
2023-11-21T04:29:24.869Z,99366.38
2023-11-21T04:31:52.340Z,99357.62
2023-11-21T04:34:20.099Z,99363.66
2023-11-21T04:36:47.542Z,99368.91
2023-11-21T04:39:15.266Z,99368.16
2023-11-21T04:41:43.945Z,99372.22
2023-11-21T04:44:11.615Z,99378.03
2023-11-21T04:46:39.250Z,99385.38
2023-11-21T04:49:07.013Z,99394.78
2023-11-21T04:51:34.952Z,99400.25
2023-11-21T04:54:02.396Z,99402.78
2023-11-21T04:56:30.125Z,99399.16
2023-11-21T04:58:57.911Z,99396.53
2023-11-21T05:01:25.412Z,99400.03
2023-11-21T05:03:53.890Z,99409.34
2023-11-21T05:06:21.566Z,99414.31
2023-11-21T05:08:49.100Z,99414.03
2023-11-21T05:11:33.254Z,99414.16
2023-11-21T05:14:02.905Z,99407.37
2023-11-21T05:16:30.972Z,99401.91
2023-11-21T05:19:02.220Z,99396.56
2023-11-21T05:21:31.523Z,99388.25
2023-11-21T05:23:59.464Z,99391.87
2023-11-21T05:26:27.978Z,99394.75
2023-11-21T05:28:55.650Z,99400.66
2023-11-21T05:31:23.793Z,99401.06
2023-11-21T05:33:51.292Z,99401.38
2023-11-21T05:36:19.312Z,99397.91
2023-11-21T05:38:47.181Z,99391.72
2023-11-21T05:41:14.994Z,99393.13
2023-11-21T05:43:42.497Z,99395.78
2023-11-21T05:46:10.556Z,99401.91
2023-11-21T05:48:40.989Z,99402.59
2023-11-21T05:51:09.618Z,99411.72
2023-11-21T05:53:37.555Z,99413.09
2023-11-21T05:56:05.283Z,99420.00
2023-11-21T05:58:33.388Z,99417.91
2023-11-21T06:01:01.317Z,99418.62
2023-11-21T06:03:29.366Z,99422.91
2023-11-21T06:05:57.070Z,99418.75
2023-11-21T06:08:25.867Z,99426.34
2023-11-21T06:10:53.789Z,99419.25
2023-11-21T06:13:25.563Z,99429.00
2023-11-21T06:15:53.975Z,99443.72
2023-11-21T06:18:21.586Z,99443.69
2023-11-21T06:20:49.592Z,99456.25
2023-11-21T06:23:17.665Z,99450.78
2023-11-21T06:25:45.727Z,99462.81
2023-11-21T06:28:13.386Z,99471.53
2023-11-21T06:30:41.289Z,99478.09
2023-11-21T06:33:09.288Z,99475.75
2023-11-21T06:35:37.100Z,99483.13
2023-11-21T06:38:04.948Z,99481.72
2023-11-21T06:40:35.004Z,99486.91
2023-11-21T06:43:02.637Z,99492.13
2023-11-21T06:45:30.377Z,99488.13
2023-11-21T06:47:57.967Z,99486.94
2023-11-21T06:50:25.689Z,99494.69
2023-11-21T06:52:53.598Z,99490.44
2023-11-21T06:55:21.767Z,99492.81
2023-11-21T06:57:49.682Z,99487.69
2023-11-21T07:00:19.374Z,99487.00
2023-11-21T07:02:47.429Z,99488.91
2023-11-21T07:05:16.624Z,99482.25
2023-11-21T07:07:45.155Z,99487.12
2023-11-21T07:10:12.787Z,99493.09
2023-11-21T07:12:41.253Z,99490.19
2023-11-21T07:15:12.580Z,99486.78
2023-11-21T07:17:41.939Z,99483.94
2023-11-21T07:20:12.213Z,99489.09
2023-11-21T07:22:42.045Z,99484.34
2023-11-21T07:25:11.308Z,99492.78
2023-11-21T07:27:38.992Z,99491.06
2023-11-21T07:30:09.339Z,99493.69
2023-11-21T07:32:37.286Z,99488.03
2023-11-21T07:35:05.352Z,99488.63
2023-11-21T07:37:35.312Z,99487.09
2023-11-21T07:40:04.113Z,99484.22
2023-11-21T07:42:32.437Z,99491.63
2023-11-21T07:45:00.936Z,99492.75
2023-11-21T07:47:33.798Z,99487.50
2023-11-21T07:50:05.792Z,99496.25
2023-11-21T07:52:34.161Z,99493.94
2023-11-21T07:55:02.826Z,99492.13
2023-11-21T07:57:30.270Z,99494.75
2023-11-21T07:59:58.186Z,99492.16
2023-11-21T08:02:27.325Z,99493.19
2023-11-21T08:04:55.478Z,99496.66
2023-11-21T08:07:23.468Z,99497.00
2023-11-21T08:09:51.200Z,99484.47
2023-11-21T08:12:19.447Z,99490.25
2023-11-21T08:14:47.117Z,99495.94
2023-11-21T08:17:18.568Z,99495.41
2023-11-21T08:19:50.717Z,99491.69
2023-11-21T08:22:19.103Z,99485.16
2023-11-21T08:24:47.977Z,99480.56
2023-11-21T08:27:17.183Z,99481.50
2023-11-21T08:29:45.013Z,99482.97
2023-11-21T08:32:12.899Z,99475.03
2023-11-21T08:34:41.665Z,99479.50
2023-11-21T08:37:09.263Z,99463.81
2023-11-21T08:39:38.523Z,99468.66
2023-11-21T08:42:06.163Z,99467.06
2023-11-21T08:44:33.635Z,99465.22
2023-11-21T08:47:01.412Z,99469.75
2023-11-21T08:49:30.743Z,99470.72
2023-11-21T08:52:00.692Z,99473.56
2023-11-21T08:54:28.609Z,99482.66
2023-11-21T08:56:56.366Z,99490.97
2023-11-21T08:59:23.909Z,99492.56
2023-11-21T09:01:52.033Z,99494.41
2023-11-21T09:04:19.645Z,99490.16
2023-11-21T09:06:47.281Z,99493.22
2023-11-21T09:09:15.209Z,99492.53
2023-11-21T09:11:42.807Z,99494.41
2023-11-21T09:14:11.370Z,99488.41
2023-11-21T09:16:40.026Z,99497.22
2023-11-21T09:19:07.697Z,99497.81
2023-11-21T09:21:35.674Z,99490.87
2023-11-21T09:24:04.195Z,99480.81
2023-11-21T09:26:31.861Z,99464.97
2023-11-21T09:28:59.739Z,99474.63
2023-11-21T09:31:28.937Z,99467.78
2023-11-21T09:33:56.604Z,99460.31
2023-11-21T09:36:28.401Z,99457.12
2023-11-21T09:38:56.669Z,99456.56
2023-11-21T09:41:36.276Z,99446.66
2023-11-21T09:44:08.606Z,99447.41
2023-11-21T09:46:40.734Z,99439.03
2023-11-21T09:49:13.907Z,99439.63
2023-11-21T09:51:44.802Z,99436.50
2023-11-21T09:54:12.819Z,99439.47
2023-11-21T09:56:40.430Z,99446.63
2023-11-21T09:59:11.180Z,99440.75
2023-11-21T10:01:40.509Z,99438.06
2023-11-21T10:04:13.151Z,99436.16
2023-11-21T10:06:42.749Z,99431.44
2023-11-21T10:09:12.928Z,99423.09
2023-11-21T10:11:44.744Z,99426.56
2023-11-21T10:14:14.893Z,99418.81
2023-11-21T10:16:43.066Z,99424.47
2023-11-21T10:19:12.307Z,99414.91
2023-11-21T10:21:40.924Z,99415.56
2023-11-21T10:24:08.714Z,99416.59
2023-11-21T10:26:47.272Z,99413.72
2023-11-21T10:29:19.811Z,99418.09
2023-11-21T10:31:50.975Z,99419.94
2023-11-21T10:34:23.111Z,99418.94
2023-11-21T10:36:51.407Z,99416.78
2023-11-21T10:39:24.906Z,99410.47
2023-11-21T10:41:52.581Z,99412.00
2023-11-21T10:44:25.402Z,99406.63
2023-11-21T10:46:57.341Z,99415.06
2023-11-21T10:49:28.815Z,99420.28
2023-11-21T10:51:57.075Z,99417.59
2023-11-21T10:54:26.806Z,99408.59
2023-11-21T10:56:58.139Z,99411.97
2023-11-21T10:59:29.915Z,99414.06
2023-11-21T11:01:59.269Z,99407.16
2023-11-21T11:04:28.648Z,99401.91
2023-11-21T11:06:59.139Z,99402.19
2023-11-21T11:09:27.799Z,99402.22
2023-11-21T11:11:55.321Z,99400.44
2023-11-21T11:14:26.372Z,99400.84
2023-11-21T11:16:57.074Z,99398.94
2023-11-21T11:19:24.627Z,99398.63
2023-11-21T11:22:20.120Z,99399.69
2023-11-21T11:24:56.631Z,99400.91
2023-11-21T11:27:36.254Z,99403.34
2023-11-21T11:30:47.936Z,99396.03
2023-11-21T11:33:27.564Z,99395.69
2023-11-21T11:36:05.101Z,99388.88
2023-11-21T11:38:34.646Z,99388.78
2023-11-21T11:41:05.307Z,99376.59
2023-11-21T11:43:45.694Z,99379.53
2023-11-21T11:46:14.505Z,99381.47
2023-11-21T11:48:42.215Z,99375.00
2023-11-21T11:51:19.164Z,99376.63
2023-11-21T11:53:48.254Z,99375.41
2023-11-21T11:56:29.009Z,99369.63
2023-11-21T11:58:58.459Z,99352.34
2023-11-21T12:01:28.247Z,99354.78
2023-11-21T12:04:35.331Z,99356.09
2023-11-21T12:07:04.303Z,99362.69
2023-11-21T12:09:32.990Z,99363.25
2023-11-21T12:12:01.356Z,99357.38
2023-11-21T12:14:30.032Z,99345.00
2023-11-21T12:16:57.987Z,99344.94
2023-11-21T12:19:26.122Z,99354.69
2023-11-21T12:21:54.165Z,99359.97
2023-11-21T12:24:22.115Z,99361.75
2023-11-21T12:26:49.805Z,99360.72
2023-11-21T12:29:18.055Z,99355.41
2023-11-21T12:31:47.383Z,99349.19
2023-11-21T12:34:15.831Z,99346.53
2023-11-21T12:36:43.854Z,99338.37
2023-11-21T12:39:12.136Z,99333.25
2023-11-21T12:41:40.203Z,99336.38
2023-11-21T12:44:16.783Z,99344.41
2023-11-21T12:46:46.490Z,99332.38
2023-11-21T12:49:18.720Z,99337.50
2023-11-21T12:51:47.828Z,99333.16
2023-11-21T12:54:17.018Z,99336.09
2023-11-21T12:56:48.695Z,99341.44
2023-11-21T12:59:19.300Z,99328.75
2023-11-21T13:01:48.323Z,99340.25
2023-11-21T13:04:16.316Z,99338.78
2023-11-21T13:06:43.925Z,99336.13
2023-11-21T13:09:19.355Z,99341.06
2023-11-21T13:11:48.038Z,99342.47
2023-11-21T13:14:16.007Z,99342.31
2023-11-21T13:16:47.713Z,99339.59
2023-11-21T13:19:15.865Z,99340.63
2023-11-21T13:21:45.057Z,99332.53
2023-11-21T13:24:12.701Z,99332.84
2023-11-21T13:26:40.572Z,99332.78
2023-11-21T13:29:10.393Z,99330.78
2023-11-21T13:31:39.663Z,99338.94
2023-11-21T13:34:09.664Z,99340.44
2023-11-21T13:36:37.510Z,99345.94
2023-11-21T13:39:16.737Z,99341.41
2023-11-21T13:41:44.897Z,99334.38
2023-11-21T13:44:28.317Z,99343.28
2023-11-21T13:46:59.493Z,99334.75
2023-11-21T13:49:30.314Z,99336.09
2023-11-21T13:51:59.889Z,99344.81
2023-11-21T13:54:28.589Z,99342.03
2023-11-21T13:56:56.877Z,99336.78
2023-11-21T13:59:29.351Z,99344.41
2023-11-21T14:02:01.372Z,99343.50
2023-11-21T14:04:49.683Z,99350.50
2023-11-21T14:07:28.011Z,99354.94
2023-11-21T14:09:57.393Z,99354.69
2023-11-21T14:12:25.848Z,99350.56
2023-11-21T14:14:53.929Z,99355.22
2023-11-21T14:17:23.616Z,99355.31
2023-11-21T14:20:04.174Z,99362.97
2023-11-21T14:26:31.409Z,99359.44
2023-11-21T14:29:23.694Z,99361.25
2023-11-21T14:32:02.842Z,99361.25
2023-11-21T14:34:30.896Z,99370.22
2023-11-21T14:36:59.569Z,99375.59
2023-11-21T14:39:39.032Z,99364.16
2023-11-21T14:42:09.369Z,99368.44
2023-11-21T15:06:30.696Z,99395.59
2023-11-21T15:09:08.143Z,99396.47
2023-11-21T15:11:36.616Z,99393.72
2023-11-21T15:14:10.322Z,99399.03
2023-11-21T15:16:44.478Z,99389.47
2023-11-21T15:19:19.072Z,99395.44
2023-11-21T15:21:47.199Z,99392.16
2023-11-21T15:24:14.997Z,99393.94
2023-11-21T15:26:42.463Z,99388.56
2023-11-21T15:29:10.188Z,99391.13
2023-11-21T15:31:39.542Z,99381.88
2023-11-21T15:34:07.126Z,99386.88
2023-11-21T15:36:34.862Z,99385.63
2023-11-21T15:39:02.669Z,99388.34
2023-11-21T15:41:30.208Z,99398.72
2023-11-21T15:43:58.942Z,99392.06
2023-11-21T15:46:27.106Z,99383.37
2023-11-21T15:48:58.057Z,99390.91
2023-11-21T15:51:25.928Z,99386.56
2023-11-21T15:53:53.768Z,99392.69
2023-11-21T15:56:21.198Z,99379.44
2023-11-21T15:58:51.415Z,99393.97
2023-11-21T16:01:23.135Z,99387.41
2023-11-21T16:03:52.127Z,99388.69
2023-11-21T16:06:19.867Z,99382.78
2023-11-21T16:08:47.408Z,99396.38
2023-11-21T16:11:15.219Z,99395.84
2023-11-21T16:13:43.732Z,99400.78
2023-11-21T16:16:11.322Z,99402.66
2023-11-21T16:18:39.567Z,99401.28
2023-11-21T16:21:09.210Z,99407.88
2023-11-21T16:23:38.210Z,99425.09
2023-11-21T16:26:07.262Z,99413.53
2023-11-21T16:28:34.936Z,99415.97
2023-11-21T16:31:02.739Z,99410.97
2023-11-21T16:33:30.828Z,99411.94
2023-11-21T16:35:58.256Z,99414.56
2023-11-21T16:38:25.845Z,99414.72
2023-11-21T16:40:53.779Z,99421.13
2023-11-21T16:43:22.484Z,99422.63
2023-11-21T16:45:53.087Z,99422.63
2023-11-21T16:48:21.343Z,99410.72
2023-11-21T16:50:50.092Z,99413.94
2023-11-21T16:53:18.376Z,99411.94
2023-11-21T16:55:50.384Z,99419.06
2023-11-21T16:58:18.839Z,99419.56
2023-11-21T17:00:48.742Z,99416.06
2023-11-21T17:03:16.738Z,99419.56
2023-11-21T17:05:44.363Z,99420.97
2023-11-21T17:08:13.308Z,99426.69
2023-11-21T17:10:40.840Z,99428.06
2023-11-21T17:13:08.473Z,99428.28
2023-11-21T17:15:36.217Z,99433.19
2023-11-21T17:18:04.377Z,99438.03
2023-11-21T17:20:31.978Z,99433.66
2023-11-21T17:23:00.401Z,99433.03
2023-11-21T17:25:27.892Z,99440.44
2023-11-21T17:27:57.288Z,99438.44
2023-11-21T17:30:25.087Z,99440.88
2023-11-21T17:32:52.717Z,99438.91
2023-11-21T17:35:20.459Z,99436.47
2023-11-21T17:37:48.428Z,99447.69
2023-11-21T17:40:16.442Z,99448.06
2023-11-21T17:42:43.935Z,99449.69
2023-11-21T17:45:11.835Z,99446.88
2023-11-21T17:47:39.521Z,99447.47
2023-11-21T17:50:07.120Z,99448.97
2023-11-21T17:52:35.480Z,99452.22
2023-11-21T17:55:02.937Z,99456.06
2023-11-21T17:57:30.484Z,99448.97
2023-11-21T17:59:58.175Z,99454.59
2023-11-21T18:02:25.799Z,99458.84
2023-11-21T18:04:53.610Z,99472.63
2023-11-21T18:07:21.054Z,99469.25
2023-11-21T18:09:48.880Z,99467.87
2023-11-21T18:12:17.663Z,99462.13
2023-11-21T18:14:49.467Z,99471.38
2023-11-21T18:17:18.716Z,99463.28
2023-11-21T18:19:48.231Z,99476.50
2023-11-21T18:22:16.679Z,99479.06
2023-11-21T18:24:44.366Z,99475.09
2023-11-21T18:27:12.059Z,99474.53
2023-11-21T18:29:39.681Z,99483.94
2023-11-21T18:32:11.504Z,99483.75
2023-11-21T18:34:44.635Z,99479.97
2023-11-21T18:37:13.211Z,99482.16
2023-11-21T18:39:43.705Z,99483.09
2023-11-21T18:42:11.090Z,99485.25
2023-11-21T18:44:55.087Z,99490.63
2023-11-21T18:47:26.530Z,99484.03
2023-11-21T18:49:54.545Z,99482.41
2023-11-21T18:52:22.020Z,99486.62
2023-11-21T18:54:49.774Z,99489.00
2023-11-21T18:57:17.928Z,99487.28
2023-11-21T18:59:46.076Z,99491.72
2023-11-21T19:02:17.066Z,99480.91
2023-11-21T19:04:45.810Z,99481.09
2023-11-21T19:07:13.626Z,99478.00
2023-11-21T19:09:41.313Z,99489.87
2023-11-21T19:12:09.670Z,99488.84
2023-11-21T19:14:37.168Z,99492.16
2023-11-21T19:17:04.766Z,99486.28
2023-11-21T19:19:32.837Z,99490.75
2023-11-21T19:22:00.809Z,99501.78
2023-11-21T19:24:30.081Z,99499.91
2023-11-21T19:26:57.965Z,99499.69
2023-11-21T19:29:26.741Z,99502.44
2023-11-21T19:31:55.969Z,99497.16
2023-11-21T19:34:24.359Z,99501.47
2023-11-21T19:36:53.768Z,99497.91
2023-11-21T19:39:21.347Z,99496.03
2023-11-21T19:41:49.899Z,99496.28
2023-11-21T19:44:17.488Z,99500.47
2023-11-21T19:46:45.158Z,99501.38
2023-11-21T19:49:13.669Z,99500.91
2023-11-21T19:51:41.213Z,99501.88
2023-11-21T19:54:09.988Z,99508.34
2023-11-21T19:56:39.568Z,99506.13
2023-11-21T19:59:07.149Z,99514.03
2023-11-21T20:01:35.128Z,99512.50
2023-11-21T20:04:03.048Z,99518.84
2023-11-21T20:09:00.870Z,99518.09
2023-11-21T20:11:28.715Z,99512.41
2023-11-21T20:13:57.273Z,99521.41
2023-11-21T20:16:26.779Z,99514.44
2023-11-21T20:18:54.869Z,99523.00
2023-11-21T20:21:23.551Z,99520.72
2023-11-21T20:23:51.273Z,99522.03
2023-11-21T20:26:26.039Z,99525.12
2023-11-21T20:28:54.732Z,99527.25
2023-11-21T20:31:22.666Z,99513.31
2023-11-21T20:33:50.243Z,99519.56
2023-11-21T20:36:17.908Z,99524.06
2023-11-21T20:38:45.722Z,99526.25
2023-11-21T20:41:15.452Z,99533.03
2023-11-21T20:43:43.050Z,99529.53
2023-11-21T20:46:11.853Z,99532.88
2023-11-21T20:48:39.940Z,99538.97
2023-11-21T20:51:08.093Z,99537.88
2023-11-21T20:53:36.101Z,99539.38
2023-11-21T20:56:04.022Z,99539.66
2023-11-21T20:58:31.571Z,99544.31
2023-11-21T21:00:59.465Z,99546.25
2023-11-21T21:03:27.098Z,99545.44
2023-11-21T21:05:54.640Z,99551.84
2023-11-21T21:08:22.386Z,99549.78
2023-11-21T21:10:49.930Z,99552.19
2023-11-21T21:13:18.862Z,99557.88
2023-11-21T21:15:49.745Z,99561.38
2023-11-21T21:18:17.723Z,99561.53
2023-11-21T21:20:45.896Z,99568.16
2023-11-21T21:23:15.176Z,99553.47
2023-11-21T21:25:42.708Z,99559.09
2023-11-21T21:28:10.151Z,99567.50
2023-11-21T21:30:38.220Z,99569.09
2023-11-21T21:33:07.138Z,99571.50
2023-11-21T21:35:34.896Z,99567.13
2023-11-21T21:38:03.363Z,99571.63
2023-11-21T21:40:33.208Z,99578.34
2023-11-21T21:43:02.119Z,99579.09
2023-11-21T21:45:30.132Z,99588.03
2023-11-21T21:47:57.776Z,99582.63
2023-11-21T21:50:26.775Z,99581.84
2023-11-21T21:52:58.514Z,99586.53
2023-11-21T21:55:30.235Z,99591.69
2023-11-21T21:57:58.109Z,99590.84
2023-11-21T22:00:25.667Z,99592.34
2023-11-21T22:02:53.448Z,99598.50
2023-11-21T22:05:20.951Z,99592.03
2023-11-21T22:07:48.406Z,99589.53
2023-11-21T22:10:16.303Z,99587.63
2023-11-21T22:12:44.083Z,99578.34
2023-11-21T22:15:11.620Z,99575.84
2023-11-21T22:17:39.540Z,99580.84
2023-11-21T22:20:07.608Z,99582.84
2023-11-21T22:22:35.073Z,99590.69
2023-11-21T22:25:04.666Z,99592.38
2023-11-21T22:27:32.259Z,99587.28
2023-11-21T22:30:00.133Z,99600.91
2023-11-21T22:32:28.701Z,99599.59
2023-11-21T22:34:56.148Z,99606.22
2023-11-21T22:37:23.671Z,99607.84
2023-11-21T22:39:52.635Z,99611.34
2023-11-21T22:42:21.768Z,99608.16
2023-11-21T22:44:49.374Z,99615.91
2023-11-21T22:47:17.365Z,99613.56
2023-11-21T22:49:45.038Z,99611.75
2023-11-21T22:52:12.509Z,99610.84
2023-11-21T22:54:40.382Z,99616.72
2023-11-21T22:57:07.968Z,99621.81
2023-11-21T22:59:36.833Z,99616.75
2023-11-21T23:02:05.075Z,99630.66
2023-11-21T23:04:32.652Z,99621.38
2023-11-21T23:07:00.177Z,99618.13
2023-11-21T23:09:28.018Z,99621.16
2023-11-21T23:11:55.578Z,99625.00
2023-11-21T23:14:23.127Z,99630.19
2023-11-21T23:16:52.723Z,99628.31
2023-11-21T23:19:21.628Z,99625.69
2023-11-21T23:21:49.186Z,99621.09
2023-11-21T23:24:21.324Z,99621.44
2023-11-21T23:26:49.230Z,99619.63
2023-11-21T23:29:17.799Z,99622.22
2023-11-21T23:31:45.313Z,99627.63
2023-11-21T23:34:13.139Z,99636.66
2023-11-21T23:36:41.378Z,99643.72
2023-11-21T23:39:09.167Z,99644.09
2023-11-21T23:41:36.667Z,99646.84
2023-11-21T23:44:05.797Z,99643.37
2023-11-21T23:46:36.892Z,99643.81
2023-11-21T23:49:04.728Z,99635.34
2023-11-21T23:51:32.330Z,99643.44
2023-11-21T23:53:59.789Z,99637.59
2023-11-21T23:56:27.763Z,99634.25
2023-11-21T23:58:55.897Z,99633.59
